sensor_id;sensor_type;location;lat;lon;timestamp;P1;durP1;ratioP1;P2;durP2;ratioP2
64199;SDS011;50516;52.272;5.136;2022-09-06T00:01:49;5.07;;;3.63;;
64199;SDS011;50516;52.272;5.136;2022-09-06T00:04:15;5.32;;;3.20;;
64199;SDS011;50516;52.272;5.136;2022-09-06T00:06:40;6.55;;;3.72;;
64199;SDS011;50516;52.272;5.136;2022-09-06T00:09:05;6.32;;;3.50;;
64199;SDS011;50516;52.272;5.136;2022-09-06T00:11:31;6.20;;;3.80;;
64199;SDS011;50516;52.272;5.136;2022-09-06T00:13:56;7.05;;;3.67;;
64199;SDS011;50516;52.272;5.136;2022-09-06T00:16:23;7.40;;;3.35;;
64199;SDS011;50516;52.272;5.136;2022-09-06T00:18:51;5.68;;;3.20;;
64199;SDS011;50516;52.272;5.136;2022-09-06T00:21:22;5.40;;;3.25;;
64199;SDS011;50516;52.272;5.136;2022-09-06T00:23:49;5.32;;;3.03;;
64199;SDS011;50516;52.272;5.136;2022-09-06T00:26:15;5.38;;;3.40;;
64199;SDS011;50516;52.272;5.136;2022-09-06T00:28:41;6.22;;;3.97;;
64199;SDS011;50516;52.272;5.136;2022-09-06T00:31:08;5.75;;;3.65;;
64199;SDS011;50516;52.272;5.136;2022-09-06T00:33:38;6.22;;;3.47;;
64199;SDS011;50516;52.272;5.136;2022-09-06T00:36:03;4.50;;;3.33;;
64199;SDS011;50516;52.272;5.136;2022-09-06T00:38:29;9.75;;;3.53;;
64199;SDS011;50516;52.272;5.136;2022-09-06T00:40:55;11.45;;;4.18;;
64199;SDS011;50516;52.272;5.136;2022-09-06T00:43:21;7.65;;;3.40;;
64199;SDS011;50516;52.272;5.136;2022-09-06T00:45:46;4.40;;;3.38;;
64199;SDS011;50516;52.272;5.136;2022-09-06T00:48:12;7.10;;;3.88;;
64199;SDS011;50516;52.272;5.136;2022-09-06T00:50:38;6.00;;;3.67;;
64199;SDS011;50516;52.272;5.136;2022-09-06T00:53:04;6.10;;;3.90;;
64199;SDS011;50516;52.272;5.136;2022-09-06T00:55:29;6.72;;;4.05;;
64199;SDS011;50516;52.272;5.136;2022-09-06T00:57:54;7.57;;;4.75;;
64199;SDS011;50516;52.272;5.136;2022-09-06T01:00:20;9.02;;;6.50;;
64199;SDS011;50516;52.272;5.136;2022-09-06T01:02:46;9.10;;;6.00;;
64199;SDS011;50516;52.272;5.136;2022-09-06T01:05:12;10.95;;;6.75;;
64199;SDS011;50516;52.272;5.136;2022-09-06T01:08:01;14.70;;;6.25;;
64199;SDS011;50516;52.272;5.136;2022-09-06T01:18:50;7.90;;;5.07;;
64199;SDS011;50516;52.272;5.136;2022-09-06T01:21:35;9.68;;;6.93;;
64199;SDS011;50516;52.272;5.136;2022-09-06T01:30:05;9.68;;;5.90;;
64199;SDS011;50516;52.272;5.136;2022-09-06T01:38:05;9.52;;;6.10;;
64199;SDS011;50516;52.272;5.136;2022-09-06T01:40:32;15.77;;;6.90;;
64199;SDS011;50516;52.272;5.136;2022-09-06T01:43:00;9.55;;;6.50;;
64199;SDS011;50516;52.272;5.136;2022-09-06T01:51:21;11.68;;;7.38;;
64199;SDS011;50516;52.272;5.136;2022-09-06T02:04:49;8.60;;;5.88;;
64199;SDS011;50516;52.272;5.136;2022-09-06T02:07:26;9.07;;;6.10;;
64199;SDS011;50516;52.272;5.136;2022-09-06T02:10:01;11.10;;;5.70;;
64199;SDS011;50516;52.272;5.136;2022-09-06T02:12:28;8.95;;;5.40;;
64199;SDS011;50516;52.272;5.136;2022-09-06T02:14:58;8.98;;;5.65;;
64199;SDS011;50516;52.272;5.136;2022-09-06T02:17:30;9.48;;;5.43;;
64199;SDS011;50516;52.272;5.136;2022-09-06T02:20:04;9.52;;;4.88;;
64199;SDS011;50516;52.272;5.136;2022-09-06T02:22:32;8.02;;;5.10;;
64199;SDS011;50516;52.272;5.136;2022-09-06T02:25:05;6.00;;;4.60;;
64199;SDS011;50516;52.272;5.136;2022-09-06T02:27:33;7.93;;;4.82;;
64199;SDS011;50516;52.272;5.136;2022-09-06T02:29:59;8.00;;;4.97;;
64199;SDS011;50516;52.272;5.136;2022-09-06T02:32:27;7.35;;;4.57;;
64199;SDS011;50516;52.272;5.136;2022-09-06T02:34:54;8.57;;;4.80;;
64199;SDS011;50516;52.272;5.136;2022-09-06T02:37:24;7.47;;;4.85;;
64199;SDS011;50516;52.272;5.136;2022-09-06T02:39:53;7.00;;;4.72;;
64199;SDS011;50516;52.272;5.136;2022-09-06T02:42:19;7.40;;;4.10;;
64199;SDS011;50516;52.272;5.136;2022-09-06T02:44:47;7.78;;;4.50;;
64199;SDS011;50516;52.272;5.136;2022-09-06T02:47:13;9.98;;;4.90;;
64199;SDS011;50516;52.272;5.136;2022-09-06T02:49:39;7.90;;;4.65;;
64199;SDS011;50516;52.272;5.136;2022-09-06T02:52:04;7.53;;;4.90;;
64199;SDS011;50516;52.272;5.136;2022-09-06T02:54:30;7.80;;;5.20;;
64199;SDS011;50516;52.272;5.136;2022-09-06T02:56:55;8.30;;;5.03;;
64199;SDS011;50516;52.272;5.136;2022-09-06T02:59:20;7.45;;;5.07;;
64199;SDS011;50516;52.272;5.136;2022-09-06T03:01:46;7.88;;;4.93;;
64199;SDS011;50516;52.272;5.136;2022-09-06T03:04:11;8.32;;;4.93;;
64199;SDS011;50516;52.272;5.136;2022-09-06T03:06:37;8.10;;;5.45;;
64199;SDS011;50516;52.272;5.136;2022-09-06T03:09:02;11.13;;;5.47;;
64199;SDS011;50516;52.272;5.136;2022-09-06T03:11:27;7.75;;;5.82;;
64199;SDS011;50516;52.272;5.136;2022-09-06T03:13:53;6.97;;;4.50;;
64199;SDS011;50516;52.272;5.136;2022-09-06T03:16:18;8.13;;;6.05;;
64199;SDS011;50516;52.272;5.136;2022-09-06T03:18:44;6.97;;;4.95;;
64199;SDS011;50516;52.272;5.136;2022-09-06T03:21:10;7.53;;;4.97;;
64199;SDS011;50516;52.272;5.136;2022-09-06T03:23:36;9.05;;;6.47;;
64199;SDS011;50516;52.272;5.136;2022-09-06T03:26:04;7.95;;;5.03;;
64199;SDS011;50516;52.272;5.136;2022-09-06T03:28:30;8.45;;;5.53;;
64199;SDS011;50516;52.272;5.136;2022-09-06T03:30:55;7.57;;;5.10;;
64199;SDS011;50516;52.272;5.136;2022-09-06T03:33:21;7.57;;;5.18;;
64199;SDS011;50516;52.272;5.136;2022-09-06T03:35:50;9.70;;;5.13;;
64199;SDS011;50516;52.272;5.136;2022-09-06T03:38:17;7.57;;;5.57;;
64199;SDS011;50516;52.272;5.136;2022-09-06T03:40:43;7.97;;;5.65;;
64199;SDS011;50516;52.272;5.136;2022-09-06T03:43:12;7.03;;;4.95;;
64199;SDS011;50516;52.272;5.136;2022-09-06T03:45:37;7.15;;;5.70;;
64199;SDS011;50516;52.272;5.136;2022-09-06T03:48:03;6.65;;;4.22;;
64199;SDS011;50516;52.272;5.136;2022-09-06T03:50:28;9.15;;;5.30;;
64199;SDS011;50516;52.272;5.136;2022-09-06T03:52:54;9.32;;;5.90;;
64199;SDS011;50516;52.272;5.136;2022-09-06T03:55:19;8.52;;;5.18;;
64199;SDS011;50516;52.272;5.136;2022-09-06T03:57:44;9.30;;;5.93;;
64199;SDS011;50516;52.272;5.136;2022-09-06T04:00:10;7.88;;;5.60;;
64199;SDS011;50516;52.272;5.136;2022-09-06T04:02:36;9.15;;;5.15;;
64199;SDS011;50516;52.272;5.136;2022-09-06T04:05:01;7.55;;;5.60;;
64199;SDS011;50516;52.272;5.136;2022-09-06T04:07:27;8.18;;;5.43;;
64199;SDS011;50516;52.272;5.136;2022-09-06T04:09:52;8.98;;;5.18;;
64199;SDS011;50516;52.272;5.136;2022-09-06T04:12:17;7.95;;;5.68;;
64199;SDS011;50516;52.272;5.136;2022-09-06T04:14:43;9.45;;;5.45;;
64199;SDS011;50516;52.272;5.136;2022-09-06T04:17:11;10.27;;;6.20;;
64199;SDS011;50516;52.272;5.136;2022-09-06T04:19:38;9.50;;;6.05;;
64199;SDS011;50516;52.272;5.136;2022-09-06T04:22:04;8.25;;;6.38;;
64199;SDS011;50516;52.272;5.136;2022-09-06T04:24:29;11.15;;;6.57;;
64199;SDS011;50516;52.272;5.136;2022-09-06T04:26:54;8.48;;;5.70;;
64199;SDS011;50516;52.272;5.136;2022-09-06T04:29:20;8.75;;;6.95;;
64199;SDS011;50516;52.272;5.136;2022-09-06T04:31:45;7.72;;;6.47;;
64199;SDS011;50516;52.272;5.136;2022-09-06T04:34:10;8.43;;;6.70;;
64199;SDS011;50516;52.272;5.136;2022-09-06T04:36:36;7.70;;;6.22;;
64199;SDS011;50516;52.272;5.136;2022-09-06T04:39:01;12.48;;;5.50;;
64199;SDS011;50516;52.272;5.136;2022-09-06T04:41:27;6.97;;;5.13;;
64199;SDS011;50516;52.272;5.136;2022-09-06T04:43:53;8.18;;;5.47;;
64199;SDS011;50516;52.272;5.136;2022-09-06T04:48:46;6.95;;;6.20;;
64199;SDS011;50516;52.272;5.136;2022-09-06T04:51:11;7.68;;;6.10;;
64199;SDS011;50516;52.272;5.136;2022-09-06T04:53:37;9.60;;;6.15;;
64199;SDS011;50516;52.272;5.136;2022-09-06T04:56:02;10.27;;;6.38;;
64199;SDS011;50516;52.272;5.136;2022-09-06T04:58:28;8.77;;;6.15;;
64199;SDS011;50516;52.272;5.136;2022-09-06T05:00:53;6.55;;;5.13;;
64199;SDS011;50516;52.272;5.136;2022-09-06T05:03:19;7.70;;;6.10;;
64199;SDS011;50516;52.272;5.136;2022-09-06T05:05:44;9.07;;;6.97;;
64199;SDS011;50516;52.272;5.136;2022-09-06T05:08:09;7.35;;;5.78;;
64199;SDS011;50516;52.272;5.136;2022-09-06T05:10:35;13.70;;;7.22;;
64199;SDS011;50516;52.272;5.136;2022-09-06T05:13:00;7.53;;;6.18;;
64199;SDS011;50516;52.272;5.136;2022-09-06T05:15:26;8.10;;;6.75;;
64199;SDS011;50516;52.272;5.136;2022-09-06T05:17:51;7.88;;;6.35;;
64199;SDS011;50516;52.272;5.136;2022-09-06T05:20:17;12.15;;;7.78;;
64199;SDS011;50516;52.272;5.136;2022-09-06T05:22:50;9.13;;;7.22;;
64199;SDS011;50516;52.272;5.136;2022-09-06T05:25:19;11.55;;;8.98;;
64199;SDS011;50516;52.272;5.136;2022-09-06T05:27:44;13.32;;;8.35;;
64199;SDS011;50516;52.272;5.136;2022-09-06T05:30:10;11.32;;;8.57;;
64199;SDS011;50516;52.272;5.136;2022-09-06T05:32:35;12.32;;;9.05;;
64199;SDS011;50516;52.272;5.136;2022-09-06T05:35:02;13.98;;;8.93;;
64199;SDS011;50516;52.272;5.136;2022-09-06T05:37:30;9.43;;;7.85;;
64199;SDS011;50516;52.272;5.136;2022-09-06T05:39:55;9.52;;;7.85;;
64199;SDS011;50516;52.272;5.136;2022-09-06T05:42:23;9.75;;;8.75;;
64199;SDS011;50516;52.272;5.136;2022-09-06T05:44:49;10.07;;;8.20;;
64199;SDS011;50516;52.272;5.136;2022-09-06T05:47:14;10.70;;;7.25;;
64199;SDS011;50516;52.272;5.136;2022-09-06T05:49:40;12.00;;;8.40;;
64199;SDS011;50516;52.272;5.136;2022-09-06T05:52:05;9.60;;;7.43;;
64199;SDS011;50516;52.272;5.136;2022-09-06T05:54:30;10.77;;;7.88;;
64199;SDS011;50516;52.272;5.136;2022-09-06T05:56:59;9.38;;;7.95;;
64199;SDS011;50516;52.272;5.136;2022-09-06T05:59:24;11.45;;;8.60;;
64199;SDS011;50516;52.272;5.136;2022-09-06T06:01:52;13.98;;;9.30;;
64199;SDS011;50516;52.272;5.136;2022-09-06T06:04:18;11.55;;;7.60;;
64199;SDS011;50516;52.272;5.136;2022-09-06T06:06:48;14.02;;;8.90;;
64199;SDS011;50516;52.272;5.136;2022-09-06T06:09:16;10.43;;;7.53;;
64199;SDS011;50516;52.272;5.136;2022-09-06T06:11:42;9.88;;;8.20;;
64199;SDS011;50516;52.272;5.136;2022-09-06T06:14:07;9.07;;;7.88;;
64199;SDS011;50516;52.272;5.136;2022-09-06T06:16:33;10.80;;;8.00;;
64199;SDS011;50516;52.272;5.136;2022-09-06T06:18:59;11.80;;;8.18;;
64199;SDS011;50516;52.272;5.136;2022-09-06T06:21:28;11.48;;;8.02;;
64199;SDS011;50516;52.272;5.136;2022-09-06T06:24:01;10.85;;;8.13;;
64199;SDS011;50516;52.272;5.136;2022-09-06T06:26:29;11.52;;;9.15;;
64199;SDS011;50516;52.272;5.136;2022-09-06T06:28:56;11.25;;;8.70;;
64199;SDS011;50516;52.272;5.136;2022-09-06T06:31:25;12.70;;;9.63;;
64199;SDS011;50516;52.272;5.136;2022-09-06T06:33:51;12.10;;;9.23;;
64199;SDS011;50516;52.272;5.136;2022-09-06T06:36:17;11.15;;;8.68;;
64199;SDS011;50516;52.272;5.136;2022-09-06T06:38:45;11.85;;;8.82;;
64199;SDS011;50516;52.272;5.136;2022-09-06T06:41:20;11.65;;;9.18;;
64199;SDS011;50516;52.272;5.136;2022-09-06T06:43:50;11.25;;;9.18;;
64199;SDS011;50516;52.272;5.136;2022-09-06T06:46:17;10.80;;;8.18;;
64199;SDS011;50516;52.272;5.136;2022-09-06T06:48:43;13.50;;;8.20;;
64199;SDS011;50516;52.272;5.136;2022-09-06T06:51:10;10.27;;;7.70;;
64199;SDS011;50516;52.272;5.136;2022-09-06T06:53:37;11.52;;;9.23;;
64199;SDS011;50516;52.272;5.136;2022-09-06T06:56:16;10.32;;;7.95;;
64199;SDS011;50516;52.272;5.136;2022-09-06T06:58:47;9.20;;;8.00;;
64199;SDS011;50516;52.272;5.136;2022-09-06T07:01:14;13.45;;;8.70;;
64199;SDS011;50516;52.272;5.136;2022-09-06T07:03:40;10.50;;;8.45;;
64199;SDS011;50516;52.272;5.136;2022-09-06T07:06:06;11.27;;;8.15;;
64199;SDS011;50516;52.272;5.136;2022-09-06T07:08:32;14.25;;;7.72;;
64199;SDS011;50516;52.272;5.136;2022-09-06T07:10:59;11.25;;;8.15;;
64199;SDS011;50516;52.272;5.136;2022-09-06T07:13:24;11.13;;;7.93;;
64199;SDS011;50516;52.272;5.136;2022-09-06T07:15:49;12.75;;;8.25;;
64199;SDS011;50516;52.272;5.136;2022-09-06T07:18:15;15.27;;;8.88;;
64199;SDS011;50516;52.272;5.136;2022-09-06T07:20:41;12.05;;;8.82;;
64199;SDS011;50516;52.272;5.136;2022-09-06T07:23:06;10.52;;;8.25;;
64199;SDS011;50516;52.272;5.136;2022-09-06T07:25:32;10.30;;;9.15;;
64199;SDS011;50516;52.272;5.136;2022-09-06T07:28:02;10.07;;;7.85;;
64199;SDS011;50516;52.272;5.136;2022-09-06T07:30:34;10.82;;;7.45;;
64199;SDS011;50516;52.272;5.136;2022-09-06T07:33:00;10.70;;;8.82;;
64199;SDS011;50516;52.272;5.136;2022-09-06T07:35:26;10.45;;;7.35;;
64199;SDS011;50516;52.272;5.136;2022-09-06T07:38:02;11.45;;;8.38;;
64199;SDS011;50516;52.272;5.136;2022-09-06T07:40:29;14.05;;;8.35;;
64199;SDS011;50516;52.272;5.136;2022-09-06T07:42:55;11.93;;;6.95;;
64199;SDS011;50516;52.272;5.136;2022-09-06T07:45:22;9.68;;;6.68;;
64199;SDS011;50516;52.272;5.136;2022-09-06T07:47:55;8.88;;;7.15;;
64199;SDS011;50516;52.272;5.136;2022-09-06T07:50:23;11.30;;;7.57;;
64199;SDS011;50516;52.272;5.136;2022-09-06T07:52:48;11.10;;;7.07;;
64199;SDS011;50516;52.272;5.136;2022-09-06T07:55:14;11.68;;;7.18;;
64199;SDS011;50516;52.272;5.136;2022-09-06T07:57:39;9.73;;;7.55;;
64199;SDS011;50516;52.272;5.136;2022-09-06T08:00:05;13.15;;;7.70;;
64199;SDS011;50516;52.272;5.136;2022-09-06T08:02:31;12.13;;;8.00;;
64199;SDS011;50516;52.272;5.136;2022-09-06T08:04:57;10.27;;;8.20;;
64199;SDS011;50516;52.272;5.136;2022-09-06T08:07:22;10.02;;;7.85;;
64199;SDS011;50516;52.272;5.136;2022-09-06T08:09:48;11.10;;;6.85;;
64199;SDS011;50516;52.272;5.136;2022-09-06T08:12:15;10.30;;;5.82;;
64199;SDS011;50516;52.272;5.136;2022-09-06T08:14:41;7.00;;;5.63;;
64199;SDS011;50516;52.272;5.136;2022-09-06T08:17:06;7.32;;;5.13;;
64199;SDS011;50516;52.272;5.136;2022-09-06T08:19:32;9.00;;;5.63;;
64199;SDS011;50516;52.272;5.136;2022-09-06T08:21:58;9.13;;;6.20;;
64199;SDS011;50516;52.272;5.136;2022-09-06T08:24:24;8.85;;;5.60;;
64199;SDS011;50516;52.272;5.136;2022-09-06T08:26:49;8.02;;;5.18;;
64199;SDS011;50516;52.272;5.136;2022-09-06T08:29:15;8.20;;;4.85;;
64199;SDS011;50516;52.272;5.136;2022-09-06T08:31:41;6.68;;;5.00;;
64199;SDS011;50516;52.272;5.136;2022-09-06T08:34:08;6.07;;;4.50;;
64199;SDS011;50516;52.272;5.136;2022-09-06T08:36:36;5.80;;;4.72;;
64199;SDS011;50516;52.272;5.136;2022-09-06T08:39:03;6.55;;;4.55;;
64199;SDS011;50516;52.272;5.136;2022-09-06T08:41:32;6.45;;;4.53;;
64199;SDS011;50516;52.272;5.136;2022-09-06T08:44:04;6.57;;;4.13;;
64199;SDS011;50516;52.272;5.136;2022-09-06T08:46:36;7.85;;;4.13;;
64199;SDS011;50516;52.272;5.136;2022-09-06T08:49:04;7.95;;;4.03;;
64199;SDS011;50516;52.272;5.136;2022-09-06T08:51:40;6.05;;;3.70;;
64199;SDS011;50516;52.272;5.136;2022-09-06T08:54:31;8.45;;;4.03;;
64199;SDS011;50516;52.272;5.136;2022-09-06T08:57:09;6.97;;;4.22;;
64199;SDS011;50516;52.272;5.136;2022-09-06T08:59:45;6.95;;;3.33;;
64199;SDS011;50516;52.272;5.136;2022-09-06T09:02:11;8.20;;;4.72;;
64199;SDS011;50516;52.272;5.136;2022-09-06T09:04:43;9.10;;;4.32;;
64199;SDS011;50516;52.272;5.136;2022-09-06T09:07:20;5.40;;;3.70;;
64199;SDS011;50516;52.272;5.136;2022-09-06T09:09:50;7.65;;;3.92;;
64199;SDS011;50516;52.272;5.136;2022-09-06T09:12:16;6.43;;;3.72;;
64199;SDS011;50516;52.272;5.136;2022-09-06T09:14:46;6.10;;;3.47;;
64199;SDS011;50516;52.272;5.136;2022-09-06T09:17:19;4.45;;;3.05;;
64199;SDS011;50516;52.272;5.136;2022-09-06T09:19:49;5.68;;;3.67;;
64199;SDS011;50516;52.272;5.136;2022-09-06T09:22:16;6.43;;;3.25;;
64199;SDS011;50516;52.272;5.136;2022-09-06T09:24:43;5.43;;;3.08;;
64199;SDS011;50516;52.272;5.136;2022-09-06T09:27:09;7.15;;;3.50;;
64199;SDS011;50516;52.272;5.136;2022-09-06T09:32:36;4.22;;;2.78;;
64199;SDS011;50516;52.272;5.136;2022-09-06T09:35:17;6.18;;;3.47;;
64199;SDS011;50516;52.272;5.136;2022-09-06T09:38:07;4.32;;;3.15;;
64199;SDS011;50516;52.272;5.136;2022-09-06T09:43:22;5.10;;;3.40;;
64199;SDS011;50516;52.272;5.136;2022-09-06T09:48:37;6.93;;;3.88;;
64199;SDS011;50516;52.272;5.136;2022-09-06T09:51:17;7.45;;;4.07;;
64199;SDS011;50516;52.272;5.136;2022-09-06T09:53:50;8.05;;;4.82;;
64199;SDS011;50516;52.272;5.136;2022-09-06T09:56:24;7.70;;;4.68;;
64199;SDS011;50516;52.272;5.136;2022-09-06T09:59:04;7.72;;;4.55;;
64199;SDS011;50516;52.272;5.136;2022-09-06T10:01:42;8.85;;;5.68;;
64199;SDS011;50516;52.272;5.136;2022-09-06T10:04:09;9.55;;;5.55;;
64199;SDS011;50516;52.272;5.136;2022-09-06T10:06:41;7.97;;;6.45;;
64199;SDS011;50516;52.272;5.136;2022-09-06T10:09:40;7.68;;;4.40;;
64199;SDS011;50516;52.272;5.136;2022-09-06T10:12:00;6.95;;;5.50;;
64199;SDS011;50516;52.272;5.136;2022-09-06T10:14:30;6.95;;;4.55;;
64199;SDS011;50516;52.272;5.136;2022-09-06T10:16:57;8.73;;;5.70;;
64199;SDS011;50516;52.272;5.136;2022-09-06T10:19:42;9.02;;;6.13;;
64199;SDS011;50516;52.272;5.136;2022-09-06T10:25:05;10.57;;;4.93;;
64199;SDS011;50516;52.272;5.136;2022-09-06T10:27:40;10.05;;;4.53;;
64199;SDS011;50516;52.272;5.136;2022-09-06T10:30:29;8.30;;;4.90;;
64199;SDS011;50516;52.272;5.136;2022-09-06T10:32:59;6.13;;;3.70;;
64199;SDS011;50516;52.272;5.136;2022-09-06T10:35:36;9.73;;;5.75;;
64199;SDS011;50516;52.272;5.136;2022-09-06T10:43:48;4.90;;;3.83;;
64199;SDS011;50516;52.272;5.136;2022-09-06T10:46:24;7.03;;;5.63;;
64199;SDS011;50516;52.272;5.136;2022-09-06T10:48:50;7.93;;;5.45;;
64199;SDS011;50516;52.272;5.136;2022-09-06T10:56:38;6.90;;;4.35;;
64199;SDS011;50516;52.272;5.136;2022-09-06T11:05:01;9.27;;;4.70;;
64199;SDS011;50516;52.272;5.136;2022-09-06T11:07:31;7.85;;;4.68;;
64199;SDS011;50516;52.272;5.136;2022-09-06T11:10:04;13.38;;;5.57;;
64199;SDS011;50516;52.272;5.136;2022-09-06T11:12:40;7.95;;;5.97;;
64199;SDS011;50516;52.272;5.136;2022-09-06T11:15:12;8.00;;;5.50;;
64199;SDS011;50516;52.272;5.136;2022-09-06T11:17:44;7.30;;;5.15;;
64199;SDS011;50516;52.272;5.136;2022-09-06T11:25:21;8.95;;;6.43;;
64199;SDS011;50516;52.272;5.136;2022-09-06T11:28:04;12.48;;;5.65;;
64199;SDS011;50516;52.272;5.136;2022-09-06T11:30:38;8.75;;;5.57;;
64199;SDS011;50516;52.272;5.136;2022-09-06T11:35:40;7.82;;;5.40;;
64199;SDS011;50516;52.272;5.136;2022-09-06T11:40:44;9.90;;;5.40;;
64199;SDS011;50516;52.272;5.136;2022-09-06T11:46:07;8.85;;;6.10;;
64199;SDS011;50516;52.272;5.136;2022-09-06T11:48:35;9.07;;;6.03;;
64199;SDS011;50516;52.272;5.136;2022-09-06T11:51:23;11.45;;;5.85;;
64199;SDS011;50516;52.272;5.136;2022-09-06T11:56:24;8.65;;;6.38;;
64199;SDS011;50516;52.272;5.136;2022-09-06T11:58:56;9.52;;;6.03;;
64199;SDS011;50516;52.272;5.136;2022-09-06T12:06:26;9.65;;;6.93;;
64199;SDS011;50516;52.272;5.136;2022-09-06T12:08:55;14.38;;;8.70;;
64199;SDS011;50516;52.272;5.136;2022-09-06T12:11:35;12.75;;;8.32;;
64199;SDS011;50516;52.272;5.136;2022-09-06T12:27:54;10.52;;;7.22;;
64199;SDS011;50516;52.272;5.136;2022-09-06T12:30:41;10.93;;;7.68;;
64199;SDS011;50516;52.272;5.136;2022-09-06T12:35:52;13.95;;;8.55;;
64199;SDS011;50516;52.272;5.136;2022-09-06T12:38:35;12.50;;;9.35;;
64199;SDS011;50516;52.272;5.136;2022-09-06T12:41:01;10.63;;;7.30;;
64199;SDS011;50516;52.272;5.136;2022-09-06T12:43:32;13.00;;;8.65;;
64199;SDS011;50516;52.272;5.136;2022-09-06T12:46:00;11.45;;;9.55;;
64199;SDS011;50516;52.272;5.136;2022-09-06T12:48:32;13.55;;;9.20;;
64199;SDS011;50516;52.272;5.136;2022-09-06T12:51:07;9.93;;;7.10;;
64199;SDS011;50516;52.272;5.136;2022-09-06T12:53:53;13.30;;;8.77;;
64199;SDS011;50516;52.272;5.136;2022-09-06T12:56:24;13.45;;;8.43;;
64199;SDS011;50516;52.272;5.136;2022-09-06T12:58:51;14.63;;;7.95;;
64199;SDS011;50516;52.272;5.136;2022-09-06T13:06:38;13.65;;;8.68;;
64199;SDS011;50516;52.272;5.136;2022-09-06T13:09:10;13.27;;;11.15;;
64199;SDS011;50516;52.272;5.136;2022-09-06T13:11:41;13.00;;;8.85;;
64199;SDS011;50516;52.272;5.136;2022-09-06T13:14:10;12.30;;;11.00;;
64199;SDS011;50516;52.272;5.136;2022-09-06T13:16:41;16.70;;;11.55;;
64199;SDS011;50516;52.272;5.136;2022-09-06T13:19:11;14.57;;;9.70;;
64199;SDS011;50516;52.272;5.136;2022-09-06T13:21:40;15.95;;;9.52;;
64199;SDS011;50516;52.272;5.136;2022-09-06T13:24:53;15.10;;;8.68;;
64199;SDS011;50516;52.272;5.136;2022-09-06T13:26:58;9.40;;;6.75;;
64199;SDS011;50516;52.272;5.136;2022-09-06T13:29:32;12.48;;;8.65;;
64199;SDS011;50516;52.272;5.136;2022-09-06T13:31:58;10.27;;;7.57;;
64199;SDS011;50516;52.272;5.136;2022-09-06T13:34:29;11.45;;;8.48;;
64199;SDS011;50516;52.272;5.136;2022-09-06T13:37:06;11.57;;;7.63;;
64199;SDS011;50516;52.272;5.136;2022-09-06T13:39:37;13.15;;;7.97;;
64199;SDS011;50516;52.272;5.136;2022-09-06T13:44:52;10.98;;;7.82;;
64199;SDS011;50516;52.272;5.136;2022-09-06T13:47:17;11.55;;;7.38;;
64199;SDS011;50516;52.272;5.136;2022-09-06T13:49:43;11.90;;;8.20;;
64199;SDS011;50516;52.272;5.136;2022-09-06T13:52:08;13.55;;;8.80;;
64199;SDS011;50516;52.272;5.136;2022-09-06T13:54:34;12.85;;;8.57;;
64199;SDS011;50516;52.272;5.136;2022-09-06T13:57:00;11.40;;;8.95;;
64199;SDS011;50516;52.272;5.136;2022-09-06T13:59:28;10.15;;;8.27;;
64199;SDS011;50516;52.272;5.136;2022-09-06T14:02:04;11.68;;;8.02;;
64199;SDS011;50516;52.272;5.136;2022-09-06T14:04:33;10.75;;;8.82;;
64199;SDS011;50516;52.272;5.136;2022-09-06T14:07:00;9.32;;;7.38;;
64199;SDS011;50516;52.272;5.136;2022-09-06T14:09:26;9.10;;;6.75;;
64199;SDS011;50516;52.272;5.136;2022-09-06T14:11:52;10.98;;;7.68;;
64199;SDS011;50516;52.272;5.136;2022-09-06T14:14:17;10.50;;;7.95;;
64199;SDS011;50516;52.272;5.136;2022-09-06T14:16:43;9.43;;;6.78;;
64199;SDS011;50516;52.272;5.136;2022-09-06T14:19:10;9.65;;;7.10;;
64199;SDS011;50516;52.272;5.136;2022-09-06T14:21:35;10.10;;;6.32;;
64199;SDS011;50516;52.272;5.136;2022-09-06T14:24:01;8.82;;;6.22;;
64199;SDS011;50516;52.272;5.136;2022-09-06T14:26:27;10.82;;;7.63;;
64199;SDS011;50516;52.272;5.136;2022-09-06T14:28:53;10.73;;;6.97;;
64199;SDS011;50516;52.272;5.136;2022-09-06T14:31:20;11.65;;;7.72;;
64199;SDS011;50516;52.272;5.136;2022-09-06T14:33:47;8.80;;;7.70;;
64199;SDS011;50516;52.272;5.136;2022-09-06T14:36:14;11.45;;;7.35;;
64199;SDS011;50516;52.272;5.136;2022-09-06T14:38:42;10.27;;;6.93;;
64199;SDS011;50516;52.272;5.136;2022-09-06T14:41:09;7.18;;;6.10;;
64199;SDS011;50516;52.272;5.136;2022-09-06T14:43:35;11.50;;;6.43;;
64199;SDS011;50516;52.272;5.136;2022-09-06T14:46:11;9.82;;;6.47;;
64199;SDS011;50516;52.272;5.136;2022-09-06T14:48:38;9.38;;;6.00;;
64199;SDS011;50516;52.272;5.136;2022-09-06T14:51:08;10.48;;;5.75;;
64199;SDS011;50516;52.272;5.136;2022-09-06T14:53:41;9.05;;;6.30;;
64199;SDS011;50516;52.272;5.136;2022-09-06T14:56:08;7.28;;;5.50;;
64199;SDS011;50516;52.272;5.136;2022-09-06T14:58:34;6.70;;;4.95;;
64199;SDS011;50516;52.272;5.136;2022-09-06T15:01:20;10.43;;;4.90;;
64199;SDS011;50516;52.272;5.136;2022-09-06T15:03:48;6.38;;;4.15;;
64199;SDS011;50516;52.272;5.136;2022-09-06T15:06:16;11.48;;;4.75;;
64199;SDS011;50516;52.272;5.136;2022-09-06T15:08:43;8.18;;;4.53;;
64199;SDS011;50516;52.272;5.136;2022-09-06T15:11:09;10.23;;;4.78;;
64199;SDS011;50516;52.272;5.136;2022-09-06T15:13:35;8.35;;;4.60;;
64199;SDS011;50516;52.272;5.136;2022-09-06T15:16:05;10.02;;;6.50;;
64199;SDS011;50516;52.272;5.136;2022-09-06T15:18:32;8.57;;;4.65;;
64199;SDS011;50516;52.272;5.136;2022-09-06T15:21:06;8.82;;;5.30;;
64199;SDS011;50516;52.272;5.136;2022-09-06T15:23:33;11.10;;;7.35;;
64199;SDS011;50516;52.272;5.136;2022-09-06T15:25:58;7.50;;;5.82;;
64199;SDS011;50516;52.272;5.136;2022-09-06T15:28:25;9.65;;;6.47;;
64199;SDS011;50516;52.272;5.136;2022-09-06T15:30:50;8.38;;;6.30;;
64199;SDS011;50516;52.272;5.136;2022-09-06T15:33:15;9.60;;;6.28;;
64199;SDS011;50516;52.272;5.136;2022-09-06T15:35:41;8.85;;;6.47;;
64199;SDS011;50516;52.272;5.136;2022-09-06T15:38:07;9.98;;;6.28;;
64199;SDS011;50516;52.272;5.136;2022-09-06T15:40:33;7.47;;;4.53;;
64199;SDS011;50516;52.272;5.136;2022-09-06T15:42:58;10.55;;;4.93;;
64199;SDS011;50516;52.272;5.136;2022-09-06T15:45:24;8.85;;;5.00;;
64199;SDS011;50516;52.272;5.136;2022-09-06T15:47:50;9.23;;;4.70;;
64199;SDS011;50516;52.272;5.136;2022-09-06T15:50:15;8.00;;;5.50;;
64199;SDS011;50516;52.272;5.136;2022-09-06T15:52:40;7.10;;;4.90;;
64199;SDS011;50516;52.272;5.136;2022-09-06T15:55:06;8.23;;;4.93;;
64199;SDS011;50516;52.272;5.136;2022-09-06T15:58:03;10.02;;;4.78;;
64199;SDS011;50516;52.272;5.136;2022-09-06T16:00:29;6.95;;;4.65;;
64199;SDS011;50516;52.272;5.136;2022-09-06T16:02:55;9.73;;;4.65;;
64199;SDS011;50516;52.272;5.136;2022-09-06T16:05:22;9.05;;;5.15;;
64199;SDS011;50516;52.272;5.136;2022-09-06T16:07:47;10.15;;;4.88;;
64199;SDS011;50516;52.272;5.136;2022-09-06T16:10:12;6.00;;;4.18;;
64199;SDS011;50516;52.272;5.136;2022-09-06T16:12:39;8.18;;;4.75;;
64199;SDS011;50516;52.272;5.136;2022-09-06T16:15:05;9.00;;;5.10;;
64199;SDS011;50516;52.272;5.136;2022-09-06T16:17:31;10.98;;;5.45;;
64199;SDS011;50516;52.272;5.136;2022-09-06T16:19:56;11.55;;;5.55;;
64199;SDS011;50516;52.272;5.136;2022-09-06T16:22:25;10.30;;;4.97;;
64199;SDS011;50516;52.272;5.136;2022-09-06T16:24:50;7.50;;;4.50;;
64199;SDS011;50516;52.272;5.136;2022-09-06T16:27:15;10.27;;;5.03;;
64199;SDS011;50516;52.272;5.136;2022-09-06T16:29:41;9.68;;;5.07;;
64199;SDS011;50516;52.272;5.136;2022-09-06T16:32:06;10.15;;;4.95;;
64199;SDS011;50516;52.272;5.136;2022-09-06T16:34:33;7.07;;;3.92;;
64199;SDS011;50516;52.272;5.136;2022-09-06T16:37:01;8.88;;;4.90;;
64199;SDS011;50516;52.272;5.136;2022-09-06T16:39:32;12.18;;;5.35;;
64199;SDS011;50516;52.272;5.136;2022-09-06T16:41:58;8.48;;;5.07;;
64199;SDS011;50516;52.272;5.136;2022-09-06T16:44:25;7.47;;;5.00;;